sensor_id;sensor_type;location;lat;lon;timestamp;temperature;humidity
12223;DHT22;6174;49.058;8.524;2024-03-08T11:46:55;8.40;99.90
12223;DHT22;6174;49.058;8.524;2024-03-08T11:49:35;8.10;99.90
12223;DHT22;6174;49.058;8.524;2024-03-08T11:52:17;8.30;99.90
12223;DHT22;6174;49.058;8.524;2024-03-08T11:55:13;8.90;99.90
12223;DHT22;6174;49.058;8.524;2024-03-08T11:57:46;9.40;99.90
12223;DHT22;6174;49.058;8.524;2024-03-08T12:00:23;9.40;98.90
12223;DHT22;6174;49.058;8.524;2024-03-08T12:03:07;9.40;98.80
12223;DHT22;6174;49.058;8.524;2024-03-08T12:05:41;9.30;98.40
12223;DHT22;6174;49.058;8.524;2024-03-08T12:08:15;9.10;99.40
12223;DHT22;6174;49.058;8.524;2024-03-08T12:10:49;9.30;99.60
12223;DHT22;6174;49.058;8.524;2024-03-08T12:13:21;9.40;99.80
12223;DHT22;6174;49.058;8.524;2024-03-08T12:15:56;9.50;99.60
12223;DHT22;6174;49.058;8.524;2024-03-08T12:18:25;9.30;98.30
12223;DHT22;6174;49.058;8.524;2024-03-08T12:21:04;8.90;99.00
12223;DHT22;6174;49.058;8.524;2024-03-08T12:23:34;8.90;99.10
12223;DHT22;6174;49.058;8.524;2024-03-08T12:26:13;8.60;99.20
12223;DHT22;6174;49.058;8.524;2024-03-08T12:28:43;8.50;99.40
12223;DHT22;6174;49.058;8.524;2024-03-08T12:54:42;8.40;99.70
12223;DHT22;6174;49.058;8.524;2024-03-08T12:57:15;8.50;99.50
12223;DHT22;6174;49.058;8.524;2024-03-08T12:59:46;8.50;99.20
12223;DHT22;6174;49.058;8.524;2024-03-08T13:20:39;10.10;97.40
12223;DHT22;6174;49.058;8.524;2024-03-08T13:23:31;10.40;97.50
12223;DHT22;6174;49.058;8.524;2024-03-08T13:28:57;10.50;96.60
12223;DHT22;6174;49.058;8.524;2024-03-08T13:31:28;10.80;96.20
12223;DHT22;6174;49.058;8.524;2024-03-08T13:34:25;10.80;95.80
12223;DHT22;6174;49.058;8.524;2024-03-08T13:38:02;11.90;95.20
12223;DHT22;6174;49.058;8.524;2024-03-08T13:41:12;13.50;92.30
12223;DHT22;6174;49.058;8.524;2024-03-08T13:44:02;13.80;91.10
12223;DHT22;6174;49.058;8.524;2024-03-08T13:46:44;13.90;90.00
12223;DHT22;6174;49.058;8.524;2024-03-08T13:49:18;13.90;90.10
12223;DHT22;6174;49.058;8.524;2024-03-08T13:52:13;15.00;88.40
12223;DHT22;6174;49.058;8.524;2024-03-08T13:55:10;14.50;86.30
12223;DHT22;6174;49.058;8.524;2024-03-08T13:58:58;13.60;88.10
12223;DHT22;6174;49.058;8.524;2024-03-08T14:04:50;14.30;88.10
12223;DHT22;6174;49.058;8.524;2024-03-08T14:07:26;14.00;88.10
12223;DHT22;6174;49.058;8.524;2024-03-08T14:10:01;14.00;87.20
12223;DHT22;6174;49.058;8.524;2024-03-08T14:12:40;13.70;89.60
12223;DHT22;6174;49.058;8.524;2024-03-08T14:15:14;14.20;87.70
12223;DHT22;6174;49.058;8.524;2024-03-08T14:17:55;14.50;87.60
12223;DHT22;6174;49.058;8.524;2024-03-08T14:20:24;14.10;86.70
12223;DHT22;6174;49.058;8.524;2024-03-08T14:22:56;14.00;87.80
12223;DHT22;6174;49.058;8.524;2024-03-08T14:25:26;14.00;88.10
12223;DHT22;6174;49.058;8.524;2024-03-08T14:28:00;13.90;88.90
12223;DHT22;6174;49.058;8.524;2024-03-08T14:30:33;14.10;87.00
12223;DHT22;6174;49.058;8.524;2024-03-08T14:33:05;14.60;87.10
12223;DHT22;6174;49.058;8.524;2024-03-08T14:35:34;15.00;85.60
12223;DHT22;6174;49.058;8.524;2024-03-08T14:38:04;15.20;84.30
12223;DHT22;6174;49.058;8.524;2024-03-08T14:40:41;15.40;84.20
12223;DHT22;6174;49.058;8.524;2024-03-08T14:50:02;14.40;86.80
12223;DHT22;6174;49.058;8.524;2024-03-08T14:56:11;15.00;81.60
12223;DHT22;6174;49.058;8.524;2024-03-08T16:24:06;12.30;90.80
12223;DHT22;6174;49.058;8.524;2024-03-08T16:27:13;12.00;91.10
12223;DHT22;6174;49.058;8.524;2024-03-08T16:29:44;12.00;91.20
12223;DHT22;6174;49.058;8.524;2024-03-08T16:32:33;12.00;91.30
12223;DHT22;6174;49.058;8.524;2024-03-08T16:35:59;12.00;91.50
12223;DHT22;6174;49.058;8.524;2024-03-08T16:39:06;11.80;91.60
12223;DHT22;6174;49.058;8.524;2024-03-08T16:41:54;11.50;92.00
12223;DHT22;6174;49.058;8.524;2024-03-08T16:44:25;11.30;92.70
12223;DHT22;6174;49.058;8.524;2024-03-08T16:47:18;11.30;92.90
12223;DHT22;6174;49.058;8.524;2024-03-08T16:50:20;11.10;93.20
12223;DHT22;6174;49.058;8.524;2024-03-08T16:53:07;11.00;93.50
12223;DHT22;6174;49.058;8.524;2024-03-08T16:55:47;10.80;93.80
12223;DHT22;6174;49.058;8.524;2024-03-08T16:58:40;10.80;93.70
12223;DHT22;6174;49.058;8.524;2024-03-08T17:01:34;10.50;94.10
12223;DHT22;6174;49.058;8.524;2024-03-08T17:07:41;10.30;94.90
12223;DHT22;6174;49.058;8.524;2024-03-08T17:10:24;10.10;95.60
12223;DHT22;6174;49.058;8.524;2024-03-08T17:39:40;9.20;98.30
12223;DHT22;6174;49.058;8.524;2024-03-08T17:45:32;8.60;99.10
12223;DHT22;6174;49.058;8.524;2024-03-08T19:05:29;7.20;99.90
12223;DHT22;6174;49.058;8.524;2024-03-08T19:07:58;7.60;99.90
12223;DHT22;6174;49.058;8.524;2024-03-08T19:10:27;7.20;99.90
12223;DHT22;6174;49.058;8.524;2024-03-08T19:12:56;7.10;99.90
12223;DHT22;6174;49.058;8.524;2024-03-08T19:15:25;6.80;99.90
12223;DHT22;6174;49.058;8.524;2024-03-08T19:17:53;7.00;99.90
12223;DHT22;6174;49.058;8.524;2024-03-08T19:20:21;7.00;99.90
12223;DHT22;6174;49.058;8.524;2024-03-08T19:22:51;6.90;99.90
12223;DHT22;6174;49.058;8.524;2024-03-08T19:25:20;6.90;99.90
12223;DHT22;6174;49.058;8.524;2024-03-08T19:27:48;7.00;99.90
12223;DHT22;6174;49.058;8.524;2024-03-08T19:30:16;7.00;99.90
12223;DHT22;6174;49.058;8.524;2024-03-08T19:32:46;6.70;99.90
12223;DHT22;6174;49.058;8.524;2024-03-08T19:35:13;6.40;99.90
12223;DHT22;6174;49.058;8.524;2024-03-08T19:37:44;6.50;99.90
12223;DHT22;6174;49.058;8.524;2024-03-08T19:40:15;6.40;99.90
12223;DHT22;6174;49.058;8.524;2024-03-08T19:42:45;6.40;99.90
12223;DHT22;6174;49.058;8.524;2024-03-08T19:45:12;7.00;99.90
12223;DHT22;6174;49.058;8.524;2024-03-08T19:47:40;6.60;99.90
12223;DHT22;6174;49.058;8.524;2024-03-08T19:50:09;6.60;99.90
12223;DHT22;6174;49.058;8.524;2024-03-08T19:52:48;6.50;99.90
12223;DHT22;6174;49.058;8.524;2024-03-08T19:55:18;6.60;99.90
12223;DHT22;6174;49.058;8.524;2024-03-08T20:00:22;6.60;99.90
12223;DHT22;6174;49.058;8.524;2024-03-08T20:02:52;6.60;99.90
12223;DHT22;6174;49.058;8.524;2024-03-08T20:05:21;6.90;99.90
12223;DHT22;6174;49.058;8.524;2024-03-08T20:07:50;7.10;99.90
12223;DHT22;6174;49.058;8.524;2024-03-08T20:10:22;6.80;99.90
12223;DHT22;6174;49.058;8.524;2024-03-08T20:12:50;7.10;99.90
12223;DHT22;6174;49.058;8.524;2024-03-08T20:15:18;6.90;99.90
12223;DHT22;6174;49.058;8.524;2024-03-08T20:17:51;6.80;99.90
12223;DHT22;6174;49.058;8.524;2024-03-08T20:20:19;6.90;99.90
12223;DHT22;6174;49.058;8.524;2024-03-08T20:22:48;6.90;99.90
12223;DHT22;6174;49.058;8.524;2024-03-08T20:25:16;7.00;99.90
12223;DHT22;6174;49.058;8.524;2024-03-08T20:27:50;7.10;99.90
12223;DHT22;6174;49.058;8.524;2024-03-08T20:30:18;7.00;99.90
12223;DHT22;6174;49.058;8.524;2024-03-08T20:32:48;7.20;99.90
12223;DHT22;6174;49.058;8.524;2024-03-08T20:35:15;7.10;99.90
12223;DHT22;6174;49.058;8.524;2024-03-08T20:37:46;7.00;99.90
12223;DHT22;6174;49.058;8.524;2024-03-08T20:40:13;7.10;99.90
12223;DHT22;6174;49.058;8.524;2024-03-08T20:42:40;7.10;99.90
12223;DHT22;6174;49.058;8.524;2024-03-08T20:45:08;7.20;99.90
12223;DHT22;6174;49.058;8.524;2024-03-08T20:47:36;7.30;99.90
12223;DHT22;6174;49.058;8.524;2024-03-08T20:50:07;7.30;99.90
12223;DHT22;6174;49.058;8.524;2024-03-08T20:52:38;7.40;99.90
12223;DHT22;6174;49.058;8.524;2024-03-08T20:55:07;7.30;99.90
12223;DHT22;6174;49.058;8.524;2024-03-08T20:57:38;7.50;99.90
12223;DHT22;6174;49.058;8.524;2024-03-08T21:00:08;7.60;99.90
12223;DHT22;6174;49.058;8.524;2024-03-08T21:02:44;7.50;99.90
12223;DHT22;6174;49.058;8.524;2024-03-08T21:05:11;7.70;99.90
12223;DHT22;6174;49.058;8.524;2024-03-08T21:07:38;7.70;99.90
12223;DHT22;6174;49.058;8.524;2024-03-08T21:10:05;7.70;99.90
12223;DHT22;6174;49.058;8.524;2024-03-08T21:12:36;7.70;99.90
12223;DHT22;6174;49.058;8.524;2024-03-08T21:15:04;7.80;99.90
12223;DHT22;6174;49.058;8.524;2024-03-08T21:17:35;7.70;99.90
12223;DHT22;6174;49.058;8.524;2024-03-08T21:20:03;7.70;99.90
12223;DHT22;6174;49.058;8.524;2024-03-08T21:22:33;7.50;99.90
12223;DHT22;6174;49.058;8.524;2024-03-08T21:25:00;7.40;99.90
12223;DHT22;6174;49.058;8.524;2024-03-08T21:27:29;7.50;99.90
12223;DHT22;6174;49.058;8.524;2024-03-08T21:29:56;7.40;99.90
12223;DHT22;6174;49.058;8.524;2024-03-08T21:32:23;7.50;99.90
12223;DHT22;6174;49.058;8.524;2024-03-08T21:34:51;7.50;99.90
12223;DHT22;6174;49.058;8.524;2024-03-08T21:37:18;7.60;99.90
12223;DHT22;6174;49.058;8.524;2024-03-08T21:39:46;7.40;99.90
12223;DHT22;6174;49.058;8.524;2024-03-08T21:42:13;7.40;99.90
12223;DHT22;6174;49.058;8.524;2024-03-08T21:44:40;7.40;99.90
12223;DHT22;6174;49.058;8.524;2024-03-08T21:47:07;7.50;99.90
12223;DHT22;6174;49.058;8.524;2024-03-08T21:49:34;7.50;99.90
12223;DHT22;6174;49.058;8.524;2024-03-08T21:52:05;7.40;99.90
12223;DHT22;6174;49.058;8.524;2024-03-08T21:54:32;7.20;99.90
12223;DHT22;6174;49.058;8.524;2024-03-08T21:57:00;7.20;99.90
12223;DHT22;6174;49.058;8.524;2024-03-08T21:59:27;7.30;99.90
12223;DHT22;6174;49.058;8.524;2024-03-08T22:01:55;7.30;99.90
12223;DHT22;6174;49.058;8.524;2024-03-08T22:04:21;7.40;99.90
12223;DHT22;6174;49.058;8.524;2024-03-08T22:06:48;7.40;99.90
12223;DHT22;6174;49.058;8.524;2024-03-08T22:09:17;7.30;99.90
12223;DHT22;6174;49.058;8.524;2024-03-08T22:11:45;7.10;99.90
12223;DHT22;6174;49.058;8.524;2024-03-08T22:14:12;7.00;99.90
12223;DHT22;6174;49.058;8.524;2024-03-08T22:16:39;6.90;99.90
12223;DHT22;6174;49.058;8.524;2024-03-08T22:19:06;6.70;99.90
12223;DHT22;6174;49.058;8.524;2024-03-08T22:21:34;6.80;99.90
12223;DHT22;6174;49.058;8.524;2024-03-08T22:24:04;6.50;99.90
12223;DHT22;6174;49.058;8.524;2024-03-08T22:26:38;6.70;99.90
12223;DHT22;6174;49.058;8.524;2024-03-08T22:29:11;6.60;99.90
12223;DHT22;6174;49.058;8.524;2024-03-08T22:31:46;6.50;99.90
12223;DHT22;6174;49.058;8.524;2024-03-08T22:34:22;6.40;99.90
12223;DHT22;6174;49.058;8.524;2024-03-08T22:36:54;6.50;99.90
12223;DHT22;6174;49.058;8.524;2024-03-08T22:39:24;6.80;99.90
12223;DHT22;6174;49.058;8.524;2024-03-08T22:41:57;6.70;99.90
12223;DHT22;6174;49.058;8.524;2024-03-08T22:44:41;6.70;99.90
12223;DHT22;6174;49.058;8.524;2024-03-08T22:47:08;6.80;99.90
12223;DHT22;6174;49.058;8.524;2024-03-08T22:49:37;6.70;99.90
12223;DHT22;6174;49.058;8.524;2024-03-08T22:52:11;6.50;99.90
